createdAt,value
2023-06-11T00:00:20.104Z,57.68
2023-06-11T00:02:47.175Z,57.81
2023-06-11T00:05:16.786Z,57.78
2023-06-11T00:07:44.723Z,57.97
2023-06-11T00:10:11.996Z,58.02
2023-06-11T00:12:49.916Z,58.32
2023-06-11T00:15:17.037Z,58.13
2023-06-11T00:17:44.559Z,58.36
2023-06-11T00:20:12.818Z,58.15
2023-06-11T00:22:41.032Z,58.13
2023-06-11T00:25:11.804Z,58.32
2023-06-11T00:27:40.201Z,57.99
2023-06-11T00:30:10.868Z,58.11
2023-06-11T00:32:38.445Z,58.09
2023-06-11T00:35:08.891Z,57.77
2023-06-11T00:37:37.305Z,58.27
2023-06-11T00:40:04.608Z,58.17
2023-06-11T00:42:34.879Z,57.73
2023-06-11T00:45:04.969Z,58.17
2023-06-11T00:47:33.157Z,58.16
2023-06-11T00:50:03.500Z,58.13
2023-06-11T00:52:30.618Z,57.89
2023-06-11T00:54:59.614Z,57.89
2023-06-11T00:57:29.990Z,57.76
2023-06-11T00:59:57.208Z,58.04
2023-06-11T01:02:30.053Z,57.64
2023-06-11T01:04:59.922Z,57.74
2023-06-11T01:07:31.754Z,58.03
2023-06-11T01:10:02.218Z,57.63
2023-06-11T01:12:31.014Z,57.92
2023-06-11T01:14:58.565Z,57.91
2023-06-11T01:17:55.888Z,57.88
2023-06-11T01:20:36.297Z,58.13
2023-06-11T01:23:23.157Z,58.22
2023-06-11T01:26:02.958Z,58.23
2023-06-11T01:28:32.299Z,58.50
2023-06-11T01:31:04.328Z,58.45
2023-06-11T01:33:36.907Z,58.62
2023-06-11T01:36:07.141Z,58.65
2023-06-11T01:38:42.775Z,59.04
2023-06-11T01:41:16.112Z,59.08
2023-06-11T01:43:44.404Z,59.06
2023-06-11T01:46:11.432Z,59.33
2023-06-11T01:48:38.472Z,59.12
2023-06-11T01:51:05.935Z,59.15
2023-06-11T01:53:33.416Z,59.14
2023-06-11T01:56:02.236Z,59.04
2023-06-11T01:58:32.284Z,59.03
2023-06-11T02:00:59.695Z,59.01
2023-06-11T02:03:27.269Z,59.34
2023-06-11T02:05:54.550Z,59.20
2023-06-11T02:08:22.248Z,58.97
2023-06-11T02:10:49.199Z,59.37
2023-06-11T02:13:16.366Z,59.28
2023-06-11T02:15:43.335Z,58.91
2023-06-11T02:18:10.488Z,59.08
2023-06-11T02:20:37.876Z,58.98
2023-06-11T02:23:05.112Z,58.99
2023-06-11T02:25:32.185Z,59.17
2023-06-11T02:27:59.604Z,59.21
2023-06-11T02:30:28.633Z,58.97
2023-06-11T02:32:56.099Z,59.15
2023-06-11T02:35:23.331Z,59.14
2023-06-11T02:37:50.591Z,59.30
2023-06-11T02:40:17.649Z,59.22
2023-06-11T02:42:44.688Z,59.43
2023-06-11T02:45:12.006Z,59.50
2023-06-11T02:47:39.245Z,59.39
2023-06-11T02:50:06.968Z,59.44
2023-06-11T02:52:34.024Z,59.64
2023-06-11T02:55:01.076Z,59.62
2023-06-11T02:57:28.030Z,59.36
2023-06-11T02:59:55.022Z,59.63
2023-06-11T03:02:22.165Z,59.70
2023-06-11T03:04:49.255Z,59.68
2023-06-11T03:07:16.838Z,59.44
2023-06-11T03:09:43.873Z,59.48
2023-06-11T03:12:11.007Z,59.53
2023-06-11T03:14:39.367Z,59.70
2023-06-11T03:17:06.339Z,59.85
2023-06-11T03:19:33.302Z,59.80
2023-06-11T03:22:01.124Z,59.87
2023-06-11T03:24:28.470Z,59.74
2023-06-11T03:27:03.831Z,59.67
2023-06-11T03:29:30.939Z,59.75
2023-06-11T03:31:58.994Z,59.79
2023-06-11T03:34:26.541Z,59.70
2023-06-11T03:36:56.712Z,59.85
2023-06-11T03:39:23.804Z,59.75
2023-06-11T03:41:53.857Z,59.92
2023-06-11T03:44:22.459Z,59.90
2023-06-11T03:46:49.657Z,59.82
2023-06-11T03:49:16.657Z,60.00
2023-06-11T03:51:44.189Z,60.17
2023-06-11T03:54:11.181Z,60.67
2023-06-11T03:56:38.172Z,61.08
2023-06-11T03:59:05.573Z,60.18
2023-06-11T04:01:32.470Z,60.32
2023-06-11T04:04:00.189Z,60.53
2023-06-11T04:06:29.166Z,60.42
2023-06-11T04:08:58.229Z,60.00
2023-06-11T04:11:26.065Z,60.46
2023-06-11T04:13:53.177Z,59.92
2023-06-11T04:16:20.647Z,60.12
2023-06-11T04:18:49.162Z,59.93
2023-06-11T04:21:16.440Z,60.21
2023-06-11T04:23:43.563Z,60.21
2023-06-11T04:26:11.541Z,59.97
2023-06-11T04:28:45.366Z,60.24
2023-06-11T04:31:15.844Z,59.66
2023-06-11T04:33:47.321Z,59.85
2023-06-11T04:36:14.856Z,59.88
2023-06-11T04:38:46.239Z,59.82
2023-06-11T04:41:15.663Z,59.96
2023-06-11T04:43:47.385Z,59.98
2023-06-11T04:46:15.683Z,60.08
2023-06-11T04:48:42.688Z,59.96
2023-06-11T04:51:13.354Z,59.87
2023-06-11T04:53:44.508Z,60.04
2023-06-11T04:56:13.402Z,59.92
2023-06-11T04:58:41.339Z,60.10
2023-06-11T05:01:10.053Z,60.24
2023-06-11T05:03:38.639Z,60.11
2023-06-11T05:06:09.873Z,59.98
2023-06-11T05:08:40.808Z,60.14
2023-06-11T05:11:08.042Z,60.21
2023-06-11T05:13:35.682Z,60.24
2023-06-11T05:16:07.180Z,60.19
2023-06-11T05:18:36.990Z,60.10
2023-06-11T05:21:07.938Z,60.03
2023-06-11T05:23:36.013Z,60.08
2023-06-11T05:26:13.483Z,60.07
2023-06-11T05:28:44.835Z,59.89
2023-06-11T05:31:14.337Z,60.01
2023-06-11T05:33:45.600Z,59.95
2023-06-11T05:36:13.702Z,59.74
2023-06-11T05:38:42.220Z,59.47
2023-06-11T05:41:10.363Z,59.49
2023-06-11T05:43:38.080Z,59.69
2023-06-11T05:46:05.325Z,59.38
2023-06-11T05:48:39.661Z,59.21
2023-06-11T05:51:11.768Z,59.33
2023-06-11T05:53:43.772Z,59.10
2023-06-11T05:56:11.114Z,59.01
2023-06-11T05:58:40.147Z,58.93
2023-06-11T06:01:07.614Z,58.55
2023-06-11T06:03:39.103Z,58.46
2023-06-11T06:06:06.526Z,58.71
2023-06-11T06:08:33.626Z,58.19
2023-06-11T06:11:04.136Z,58.35
2023-06-11T06:13:31.536Z,58.36
2023-06-11T06:16:02.736Z,58.24
2023-06-11T06:18:31.241Z,57.84
2023-06-11T06:21:06.889Z,57.63
2023-06-11T06:23:34.079Z,57.54
2023-06-11T06:26:14.186Z,57.69
2023-06-11T06:28:41.283Z,56.83
2023-06-11T06:31:09.379Z,56.97
2023-06-11T06:33:39.284Z,57.08
2023-06-11T06:36:08.388Z,56.31
2023-06-11T06:38:42.803Z,55.83
2023-06-11T06:41:11.122Z,55.99
2023-06-11T06:43:38.573Z,55.74
2023-06-11T06:46:12.521Z,55.12
2023-06-11T06:48:42.734Z,55.66
2023-06-11T06:51:10.171Z,55.17
2023-06-11T06:53:41.274Z,54.90
2023-06-11T06:56:14.743Z,54.72
2023-06-11T06:58:42.667Z,53.71
2023-06-11T07:01:09.978Z,53.68
2023-06-11T07:03:37.303Z,53.16
2023-06-11T07:06:04.849Z,53.00
2023-06-11T07:08:33.026Z,53.30
2023-06-11T07:11:00.653Z,52.69
2023-06-11T07:13:41.704Z,52.80
2023-06-11T07:16:10.555Z,51.82
2023-06-11T07:18:40.598Z,51.53
2023-06-11T07:21:08.165Z,51.14
2023-06-11T07:23:35.223Z,50.92
2023-06-11T07:26:03.565Z,50.46
2023-06-11T07:28:30.683Z,50.54
2023-06-11T07:30:59.174Z,50.28
2023-06-11T07:33:26.769Z,49.58
2023-06-11T07:35:55.902Z,48.71
2023-06-11T07:38:24.128Z,47.41
2023-06-11T07:40:51.145Z,47.06
2023-06-11T07:43:18.172Z,46.70
2023-06-11T07:45:45.791Z,46.35
2023-06-11T07:48:13.899Z,46.84
2023-06-11T07:50:40.883Z,46.88
2023-06-11T07:53:10.174Z,47.21
2023-06-11T07:55:37.752Z,46.35
2023-06-11T07:58:04.696Z,46.70
2023-06-11T08:00:31.724Z,46.53
2023-06-11T08:02:58.763Z,46.29
2023-06-11T08:05:25.869Z,45.72
2023-06-11T08:07:52.860Z,45.52
2023-06-11T08:10:19.869Z,45.23
2023-06-11T08:12:46.833Z,44.48
2023-06-11T08:15:13.922Z,45.02
2023-06-11T08:17:44.185Z,45.25
2023-06-11T08:20:11.862Z,45.65
2023-06-11T08:22:40.872Z,45.58
2023-06-11T08:25:09.488Z,46.01
2023-06-11T08:27:37.003Z,46.30
2023-06-11T08:30:04.900Z,46.32
2023-06-11T08:32:32.068Z,45.71
2023-06-11T08:34:59.329Z,45.64
2023-06-11T08:37:27.194Z,45.06
2023-06-11T08:39:54.247Z,43.73
2023-06-11T08:42:21.399Z,42.98
2023-06-11T08:44:49.606Z,43.57
2023-06-11T08:47:18.082Z,42.75
2023-06-11T08:49:46.626Z,42.79
2023-06-11T08:52:15.100Z,42.93
2023-06-11T08:54:42.452Z,42.87
2023-06-11T08:57:09.993Z,43.29
2023-06-11T08:59:37.160Z,43.86
2023-06-11T09:02:04.693Z,44.33
2023-06-11T09:04:31.870Z,44.24
2023-06-11T09:07:01.097Z,44.71
2023-06-11T09:09:28.620Z,44.70
2023-06-11T09:11:55.766Z,44.53
2023-06-11T09:14:23.008Z,44.90
2023-06-11T09:16:50.255Z,45.12
2023-06-11T09:19:22.063Z,46.46
2023-06-11T09:21:57.552Z,46.30
2023-06-11T09:24:26.300Z,46.93
2023-06-11T09:26:59.927Z,47.09
2023-06-11T09:29:28.840Z,46.66
2023-06-11T09:32:19.531Z,45.57
2023-06-11T09:34:57.135Z,45.56
2023-06-11T09:37:24.645Z,45.76
2023-06-11T09:39:51.880Z,46.14
2023-06-11T09:42:28.527Z,46.34
2023-06-11T09:45:00.588Z,46.23
2023-06-11T09:47:32.362Z,46.26
2023-06-11T09:50:00.428Z,46.69
2023-06-11T09:52:30.878Z,46.66
2023-06-11T09:54:58.884Z,47.26
2023-06-11T09:57:26.414Z,47.16
2023-06-11T09:59:53.449Z,47.76
2023-06-11T10:02:20.448Z,47.99
2023-06-11T10:04:47.543Z,47.11
2023-06-11T10:07:15.793Z,48.95
2023-06-11T10:09:44.843Z,49.10
2023-06-11T10:12:13.455Z,48.88
2023-06-11T10:14:43.048Z,49.53
2023-06-11T10:17:10.117Z,49.48
2023-06-11T10:19:37.948Z,48.29
2023-06-11T10:22:05.145Z,48.32
2023-06-11T10:24:32.445Z,48.41
2023-06-11T10:27:13.963Z,47.45
2023-06-11T10:29:43.044Z,47.59
2023-06-11T10:32:24.107Z,47.01
2023-06-11T10:34:57.229Z,47.37
2023-06-11T10:37:30.500Z,46.77
2023-06-11T10:39:57.730Z,46.88
2023-06-11T10:42:27.126Z,46.93
2023-06-11T10:45:00.752Z,47.17
2023-06-11T10:47:47.103Z,46.86
2023-06-11T10:50:25.172Z,47.26
2023-06-11T10:53:00.197Z,46.98
2023-06-11T10:55:30.958Z,46.71
2023-06-11T10:57:59.920Z,46.88
2023-06-11T11:00:35.470Z,47.18
2023-06-11T11:03:05.236Z,47.00
2023-06-11T11:05:33.203Z,45.60
2023-06-11T11:08:03.271Z,45.50
2023-06-11T11:10:31.124Z,46.27
2023-06-11T11:12:58.258Z,45.91
2023-06-11T11:15:25.357Z,45.97
2023-06-11T11:17:52.664Z,45.79
2023-06-11T11:20:21.169Z,45.05
2023-06-11T11:22:55.910Z,44.99
2023-06-11T11:25:26.659Z,45.02
2023-06-11T11:27:53.785Z,45.91
2023-06-11T11:30:21.110Z,45.54
2023-06-11T11:32:48.613Z,44.50
2023-06-11T11:35:18.579Z,45.26
2023-06-11T11:37:52.447Z,44.48
2023-06-11T11:40:21.026Z,43.89
2023-06-11T11:42:56.913Z,42.71
2023-06-11T11:45:34.476Z,42.96
2023-06-11T11:48:05.419Z,43.21
2023-06-11T11:50:33.172Z,44.71
2023-06-11T11:53:06.097Z,44.75
2023-06-11T11:55:34.941Z,45.12
2023-06-11T11:58:11.663Z,45.28
2023-06-11T12:00:49.569Z,45.40
2023-06-11T12:03:19.999Z,45.89
2023-06-11T12:06:06.154Z,45.86
2023-06-11T12:08:34.511Z,46.60
2023-06-11T12:11:03.330Z,47.08
2023-06-11T12:13:30.675Z,45.05
2023-06-11T12:15:59.139Z,47.76
2023-06-11T12:18:27.268Z,48.70
2023-06-11T12:20:54.512Z,48.93
2023-06-11T12:23:22.769Z,48.67
2023-06-11T12:25:49.751Z,47.27
2023-06-11T12:28:17.199Z,46.72
2023-06-11T12:30:44.420Z,45.96
2023-06-11T12:33:16.546Z,44.79
2023-06-11T12:35:44.582Z,45.03
2023-06-11T12:38:12.077Z,44.09
2023-06-11T12:40:39.165Z,43.56
2023-06-11T12:43:08.738Z,43.04
2023-06-11T12:45:38.784Z,43.21
2023-06-11T12:48:07.141Z,43.53
2023-06-11T12:50:34.239Z,42.85
2023-06-11T12:53:01.858Z,42.95
2023-06-11T12:55:28.898Z,42.33
2023-06-11T12:57:56.152Z,42.73
2023-06-11T13:00:24.501Z,42.85
2023-06-11T13:02:51.688Z,42.19
2023-06-11T13:05:19.354Z,42.43
2023-06-11T13:07:46.637Z,42.25
2023-06-11T13:10:13.941Z,42.09
2023-06-11T13:12:41.524Z,42.24
2023-06-11T13:15:09.346Z,41.71
2023-06-11T13:17:36.404Z,41.78
2023-06-11T13:20:03.856Z,41.91
2023-06-11T13:22:31.003Z,41.83
2023-06-11T13:24:58.076Z,41.82
2023-06-11T13:27:25.019Z,42.29
2023-06-11T13:29:52.027Z,42.74
2023-06-11T13:32:20.058Z,42.60
2023-06-11T13:34:47.301Z,42.58
2023-06-11T13:37:14.453Z,43.12
2023-06-11T13:39:41.762Z,43.51
2023-06-11T13:42:08.930Z,42.79
2023-06-11T13:44:36.080Z,43.67
2023-06-11T13:47:05.785Z,43.45
2023-06-11T13:49:34.138Z,44.14
2023-06-11T13:52:02.064Z,43.49
2023-06-11T13:54:44.527Z,43.41
2023-06-11T13:57:11.816Z,43.36
2023-06-11T13:59:38.811Z,43.33
2023-06-11T14:02:06.164Z,43.05
2023-06-11T14:04:33.258Z,42.92
2023-06-11T14:07:02.195Z,42.82
2023-06-11T14:09:29.172Z,42.75
2023-06-11T14:11:56.184Z,42.67
2023-06-11T14:14:24.511Z,42.24
2023-06-11T14:16:52.098Z,42.40
2023-06-11T14:19:19.058Z,42.36
2023-06-11T14:21:46.385Z,42.20
2023-06-11T14:24:14.552Z,42.27
2023-06-11T14:26:41.713Z,42.82
2023-06-11T14:29:08.715Z,43.11
2023-06-11T14:31:36.165Z,43.02
2023-06-11T14:34:03.695Z,42.57
2023-06-11T14:36:31.175Z,42.88
2023-06-11T14:38:59.100Z,42.04
2023-06-11T14:41:26.445Z,42.16
2023-06-11T14:43:53.345Z,42.24
2023-06-11T14:46:20.514Z,41.93
2023-06-11T14:48:47.601Z,42.51
2023-06-11T14:51:14.672Z,42.07
2023-06-11T14:53:41.874Z,42.72
2023-06-11T14:56:08.877Z,43.17
2023-06-11T14:58:35.964Z,43.29
2023-06-11T15:01:05.459Z,43.22
2023-06-11T15:03:33.099Z,42.92
2023-06-11T15:06:01.205Z,42.74
2023-06-11T15:08:28.677Z,42.71
2023-06-11T15:10:55.665Z,42.35
2023-06-11T15:13:24.408Z,42.88
2023-06-11T15:15:52.240Z,42.69
2023-06-11T15:18:19.293Z,43.38
2023-06-11T15:20:46.357Z,42.41
2023-06-11T15:23:13.494Z,42.90
2023-06-11T15:25:43.647Z,42.85
2023-06-11T15:28:11.008Z,43.03
2023-06-11T15:30:46.141Z,42.43
2023-06-11T15:33:13.750Z,42.86
2023-06-11T15:35:42.062Z,43.11
2023-06-11T15:38:09.098Z,43.03
2023-06-11T15:40:36.823Z,43.13
2023-06-11T15:43:03.919Z,43.13
2023-06-11T15:45:34.004Z,43.25
2023-06-11T15:48:01.206Z,43.54
2023-06-11T15:50:30.080Z,43.95
2023-06-11T15:52:57.109Z,43.98
2023-06-11T15:55:24.260Z,44.00
2023-06-11T15:57:51.702Z,43.80
2023-06-11T16:00:19.195Z,44.44
2023-06-11T16:02:46.585Z,43.81
2023-06-11T16:05:14.405Z,44.20
2023-06-11T16:07:44.669Z,44.23
2023-06-11T16:10:14.419Z,44.43
2023-06-11T16:12:44.254Z,44.87
2023-06-11T16:15:12.061Z,44.68
2023-06-11T16:17:39.500Z,44.41
2023-06-11T16:20:07.036Z,44.66
2023-06-11T16:22:34.112Z,44.63
2023-06-11T16:25:01.148Z,45.21
2023-06-11T16:27:28.235Z,45.62
2023-06-11T16:29:55.452Z,45.89
2023-06-11T16:32:22.723Z,46.09
2023-06-11T16:34:52.590Z,45.87
2023-06-11T16:37:19.832Z,45.69
2023-06-11T16:39:46.791Z,45.77
2023-06-11T16:42:13.966Z,45.79
2023-06-11T16:44:41.296Z,45.56
2023-06-11T16:47:08.548Z,45.08
2023-06-11T16:49:35.851Z,45.26
2023-06-11T16:52:04.843Z,45.13
2023-06-11T16:54:32.235Z,45.36
2023-06-11T16:56:59.467Z,44.62
2023-06-11T16:59:31.822Z,44.95
2023-06-11T17:01:59.032Z,45.31
2023-06-11T17:04:28.788Z,45.49
2023-06-11T17:06:55.870Z,45.02
2023-06-11T17:09:22.905Z,45.27
2023-06-11T17:11:49.976Z,44.83
2023-06-11T17:14:17.120Z,44.83
2023-06-11T17:16:44.083Z,44.49
2023-06-11T17:19:11.065Z,43.34
2023-06-11T17:21:39.467Z,44.05
2023-06-11T17:24:06.850Z,44.28
2023-06-11T17:26:34.571Z,43.32
2023-06-11T17:29:03.498Z,44.83
2023-06-11T17:31:30.535Z,42.96
2023-06-11T17:33:57.573Z,43.84
2023-06-11T17:36:24.561Z,43.28
2023-06-11T17:38:51.563Z,42.19
2023-06-11T17:41:18.532Z,41.65
2023-06-11T17:43:48.431Z,40.65
2023-06-11T17:46:16.892Z,41.57
2023-06-11T17:48:44.202Z,41.94
2023-06-11T17:51:11.833Z,41.04
2023-06-11T17:53:39.231Z,41.10
2023-06-11T17:56:06.491Z,41.72
2023-06-11T17:58:34.347Z,41.10
2023-06-11T18:01:01.364Z,40.93
2023-06-11T18:03:28.386Z,41.12
2023-06-11T18:05:55.431Z,41.11
2023-06-11T18:08:24.830Z,39.98
2023-06-11T18:10:52.386Z,40.08
2023-06-11T18:13:19.602Z,40.31
2023-06-11T18:15:47.034Z,40.63
2023-06-11T18:18:16.296Z,39.80
2023-06-11T18:20:43.552Z,39.88
2023-06-11T18:23:10.887Z,40.46
2023-06-11T18:25:38.047Z,40.84
2023-06-11T18:28:05.365Z,41.09
2023-06-11T18:30:36.101Z,41.58
2023-06-11T18:33:03.308Z,43.42
2023-06-11T18:35:33.535Z,42.28
2023-06-11T18:38:01.136Z,42.66
2023-06-11T18:40:28.174Z,42.63
2023-06-11T18:42:55.393Z,43.01
2023-06-11T18:45:22.469Z,43.47
2023-06-11T18:47:52.557Z,43.77
2023-06-11T18:50:19.636Z,43.75
2023-06-11T18:52:49.520Z,44.10
2023-06-11T18:55:20.541Z,43.98
2023-06-11T18:57:48.126Z,43.29
2023-06-11T19:00:18.446Z,43.89
2023-06-11T19:02:45.788Z,43.53
2023-06-11T19:05:12.933Z,42.88
2023-06-11T19:07:40.991Z,42.50
2023-06-11T19:10:14.300Z,43.18
2023-06-11T19:12:42.406Z,43.66
2023-06-11T19:15:09.929Z,44.26
2023-06-11T19:17:40.612Z,45.09
2023-06-11T19:20:09.213Z,45.86
2023-06-11T19:22:37.051Z,45.83
2023-06-11T19:25:05.087Z,45.28
2023-06-11T19:27:32.496Z,44.86
2023-06-11T19:30:03.981Z,44.88
2023-06-11T19:32:31.283Z,44.46
2023-06-11T19:34:58.255Z,44.82
2023-06-11T19:37:25.261Z,44.68
2023-06-11T19:39:53.133Z,43.86
2023-06-11T19:42:20.251Z,43.83
2023-06-11T19:44:47.311Z,43.82
2023-06-11T19:47:14.386Z,43.86
2023-06-11T19:49:41.791Z,43.56
2023-06-11T19:52:08.868Z,44.10
2023-06-11T19:54:50.424Z,43.89
2023-06-11T19:57:21.976Z,44.06
2023-06-11T19:59:50.106Z,44.04
2023-06-11T20:02:19.761Z,44.38
2023-06-11T20:04:47.691Z,44.05
2023-06-11T20:07:17.165Z,43.69
2023-06-11T20:09:46.565Z,43.81
2023-06-11T20:12:17.343Z,44.17
2023-06-11T20:14:44.840Z,44.20
2023-06-11T20:17:12.042Z,43.87
2023-06-11T20:19:40.094Z,43.67
2023-06-11T20:22:07.365Z,43.08
2023-06-11T20:24:34.797Z,43.28
2023-06-11T20:27:01.871Z,43.04
2023-06-11T20:29:29.014Z,43.84
2023-06-11T20:31:56.584Z,44.71
2023-06-11T20:34:23.726Z,45.15
2023-06-11T20:36:50.791Z,45.92
2023-06-11T20:39:18.339Z,46.42
2023-06-11T20:41:45.391Z,46.58
2023-06-11T20:44:12.439Z,46.43
2023-06-11T20:46:39.613Z,47.24
2023-06-11T20:49:07.409Z,47.00
2023-06-11T20:51:35.433Z,47.25
2023-06-11T20:54:02.477Z,47.29
2023-06-11T20:56:30.105Z,47.59
2023-06-11T20:58:57.163Z,48.63
2023-06-11T21:01:24.242Z,48.56
2023-06-11T21:03:55.029Z,47.75
2023-06-11T21:06:22.296Z,47.36
2023-06-11T21:08:49.847Z,47.69
2023-06-11T21:11:17.636Z,47.70
2023-06-11T21:13:45.247Z,47.21
2023-06-11T21:16:14.045Z,45.84
2023-06-11T21:18:54.010Z,45.86
2023-06-11T21:21:21.015Z,46.44
2023-06-11T21:23:48.630Z,45.88
2023-06-11T21:26:27.396Z,45.72
2023-06-11T21:28:54.741Z,45.67
2023-06-11T21:31:22.927Z,45.23
2023-06-11T21:33:52.812Z,44.51
2023-06-11T21:36:25.913Z,44.89
2023-06-11T21:38:56.463Z,44.86
2023-06-11T21:41:23.550Z,44.83
2023-06-11T21:43:50.449Z,44.93
2023-06-11T21:46:18.152Z,45.09
2023-06-11T21:48:49.343Z,44.61
2023-06-11T21:51:17.732Z,44.57
2023-06-11T21:57:30.574Z,44.64
2023-06-11T21:59:58.260Z,44.64
2023-06-11T22:02:25.226Z,44.43
2023-06-11T22:04:53.997Z,43.87
2023-06-11T22:07:22.548Z,44.05
2023-06-11T22:10:07.975Z,44.00
2023-06-11T22:12:41.953Z,43.95
2023-06-11T22:15:19.922Z,43.68
2023-06-11T22:18:05.758Z,43.43
2023-06-11T22:20:36.914Z,43.92
2023-06-11T22:23:45.768Z,44.06
2023-06-11T22:26:18.455Z,43.97
2023-06-11T22:28:48.981Z,43.92
2023-06-11T22:31:19.806Z,43.94
2023-06-11T22:33:49.932Z,44.14
2023-06-11T22:36:17.322Z,43.82
2023-06-11T22:38:45.301Z,43.59
2023-06-11T22:41:15.792Z,43.78
2023-06-11T22:43:56.752Z,43.57
2023-06-11T22:46:26.923Z,43.33
2023-06-11T22:48:54.296Z,43.33
2023-06-11T22:51:22.650Z,43.08
2023-06-11T22:53:49.976Z,43.29
2023-06-11T22:56:26.914Z,43.12
2023-06-11T22:58:54.369Z,43.30
2023-06-11T23:01:22.063Z,43.39
2023-06-11T23:03:52.714Z,43.12
2023-06-11T23:06:19.942Z,42.91
2023-06-11T23:08:49.984Z,43.12
2023-06-11T23:11:17.259Z,43.02
2023-06-11T23:13:44.570Z,43.04
2023-06-11T23:16:11.932Z,43.25
2023-06-11T23:18:39.104Z,43.36
2023-06-11T23:21:07.267Z,43.50
2023-06-11T23:23:38.870Z,43.14
2023-06-11T23:26:10.981Z,43.28
2023-06-11T23:28:38.639Z,43.44
2023-06-11T23:31:08.888Z,43.44
2023-06-11T23:33:36.797Z,43.43
2023-06-11T23:36:04.147Z,43.31
2023-06-11T23:38:31.481Z,43.94
2023-06-11T23:40:58.827Z,43.64
2023-06-11T23:43:26.019Z,43.59
2023-06-11T23:45:53.333Z,43.75
2023-06-11T23:48:20.668Z,43.47
2023-06-11T23:50:50.983Z,43.79
2023-06-11T23:53:18.288Z,43.73
2023-06-11T23:55:45.437Z,43.87
2023-06-11T23:58:20.813Z,43.65
